createdAt,value
2019-05-15T00:04:53.900Z,98328.48
2019-05-15T00:09:58.605Z,98318.36
2019-05-15T00:15:02.117Z,98310.33
2019-05-15T00:20:05.848Z,98312.58
2019-05-15T00:25:09.559Z,98309.52
2019-05-15T00:30:12.979Z,98305.23
2019-05-15T00:35:18.232Z,98293.13
2019-05-15T00:40:21.229Z,98294.33
2019-05-15T00:45:24.517Z,98285.94
2019-05-15T00:50:28.737Z,98283.75
2019-05-15T00:55:32.103Z,98273.22
2019-05-15T01:00:43.553Z,98268.88
2019-05-15T01:05:48.044Z,98265.86
2019-05-15T01:10:51.516Z,98262.76
2019-05-15T01:15:54.796Z,98261.22
2019-05-15T01:20:58.702Z,98259.00
2019-05-15T01:26:02.166Z,98265.17
2019-05-15T01:31:05.450Z,98259.70
2019-05-15T01:36:08.786Z,98253.50
2019-05-15T01:41:12.128Z,98253.45
2019-05-15T01:46:15.408Z,98249.17
2019-05-15T01:51:18.698Z,98247.36
2019-05-15T01:56:21.998Z,98248.70
2019-05-15T02:01:25.332Z,98247.05
2019-05-15T02:06:28.688Z,98238.84
2019-05-15T02:11:31.927Z,98242.43
2019-05-15T02:16:35.228Z,98235.17
2019-05-15T02:21:38.514Z,98227.33
2019-05-15T02:26:41.796Z,98228.98
2019-05-15T02:31:45.078Z,98230.45
2019-05-15T02:36:49.297Z,98218.36
2019-05-15T02:41:52.939Z,98215.38
2019-05-15T02:46:58.821Z,98217.15
2019-05-15T02:52:01.235Z,98204.78
2019-05-15T02:57:04.521Z,98200.98
2019-05-15T03:02:10.177Z,98197.37
2019-05-15T03:07:12.818Z,98191.83
2019-05-15T03:12:19.387Z,98194.00
2019-05-15T03:17:22.316Z,98193.91
2019-05-15T03:22:25.617Z,98194.21
2019-05-15T03:27:30.429Z,98189.91
2019-05-15T03:32:42.767Z,98186.11
2019-05-15T03:37:39.964Z,98180.11
2019-05-15T03:42:43.448Z,98180.94
2019-05-15T03:47:49.190Z,98190.88
2019-05-15T03:52:52.309Z,98189.91
2019-05-15T03:58:02.366Z,98192.92
2019-05-15T04:03:05.652Z,98188.61
2019-05-15T04:08:10.851Z,98195.48
2019-05-15T04:13:13.941Z,98192.41
2019-05-15T04:18:19.848Z,98189.80
2019-05-15T04:23:23.184Z,98182.88
2019-05-15T04:28:29.308Z,98185.27
2019-05-15T04:33:32.426Z,98183.83
2019-05-15T04:38:39.012Z,98184.08
2019-05-15T04:43:45.148Z,98190.73
2019-05-15T04:48:46.076Z,98184.89
2019-05-15T04:53:50.410Z,98182.00
2019-05-15T04:58:53.925Z,98184.74
2019-05-15T05:03:58.934Z,98175.47
2019-05-15T05:09:02.589Z,98183.23
2019-05-15T05:14:08.400Z,98184.28
2019-05-15T05:19:10.942Z,98180.91
2019-05-15T05:24:14.238Z,98182.91
2019-05-15T05:29:17.849Z,98178.70
2019-05-15T05:34:21.202Z,98175.88
2019-05-15T05:39:24.468Z,98176.18
2019-05-15T05:44:29.112Z,98170.40
2019-05-15T05:49:32.629Z,98180.27
2019-05-15T05:54:38.112Z,98173.02
2019-05-15T05:59:40.972Z,98169.03
2019-05-15T06:04:44.324Z,98177.21
2019-05-15T06:09:48.648Z,98174.74
2019-05-15T06:14:52.142Z,98172.89
2019-05-15T06:19:55.508Z,98181.13
2019-05-15T06:24:58.744Z,98172.89
2019-05-15T06:30:02.031Z,98170.52
2019-05-15T06:35:08.727Z,98165.90
2019-05-15T06:40:11.656Z,98171.27
2019-05-15T06:45:15.123Z,98166.44
2019-05-15T06:50:38.048Z,98167.55
2019-05-15T06:55:40.740Z,98162.17
2019-05-15T07:00:44.071Z,98163.49
2019-05-15T07:05:50.308Z,98163.05
2019-05-15T07:10:53.325Z,98160.34
2019-05-15T07:15:58.524Z,98164.47
2019-05-15T07:21:01.628Z,98165.62
2019-05-15T07:26:04.921Z,98162.17
2019-05-15T07:31:11.653Z,98158.56
2019-05-15T07:36:13.268Z,98169.20
2019-05-15T07:41:18.538Z,98169.36
2019-05-15T07:46:21.576Z,98166.03
2019-05-15T07:51:24.885Z,98171.25
2019-05-15T07:56:28.963Z,98177.14
2019-05-15T08:01:32.334Z,98169.11
2019-05-15T08:06:38.596Z,98177.76
2019-05-15T08:11:40.648Z,98181.63
2019-05-15T08:16:43.945Z,98176.52
2019-05-15T08:21:51.621Z,98177.23
2019-05-15T08:26:52.267Z,98180.08
2019-05-15T08:31:55.585Z,98169.56
2019-05-15T08:36:59.168Z,98171.54
2019-05-15T08:42:02.522Z,98159.61
2019-05-15T08:47:07.727Z,98162.77
2019-05-15T08:52:11.145Z,98163.30
2019-05-15T08:57:14.794Z,98173.81
2019-05-15T09:02:18.647Z,98175.35
2019-05-15T09:07:22.896Z,98158.93
2019-05-15T09:12:26.242Z,98156.55
2019-05-15T09:17:29.539Z,98149.67
2019-05-15T09:22:32.931Z,98148.80
2019-05-15T09:27:38.333Z,98131.84
2019-05-15T09:32:41.536Z,98130.74
2019-05-15T09:37:44.827Z,98126.45
2019-05-15T09:42:48.842Z,98125.06
2019-05-15T09:47:52.116Z,98122.49
2019-05-15T09:52:55.421Z,98115.16
2019-05-15T09:57:59.137Z,98116.50
2019-05-15T10:03:02.472Z,98112.55
2019-05-15T10:08:08.456Z,98100.44
2019-05-15T10:13:10.930Z,98108.29
2019-05-15T10:18:14.231Z,98105.98
2019-05-15T10:23:19.661Z,98105.08
2019-05-15T10:28:22.542Z,98105.36
2019-05-15T10:33:25.845Z,98093.80
2019-05-15T10:38:29.117Z,98095.65
2019-05-15T10:43:32.512Z,98091.64
2019-05-15T10:48:38.395Z,98087.45
2019-05-15T10:53:40.867Z,98090.55
2019-05-15T10:58:44.212Z,98086.05
2019-05-15T11:03:49.524Z,98078.55
2019-05-15T11:08:52.631Z,98078.29
2019-05-15T11:14:00.235Z,98082.38
2019-05-15T11:19:00.935Z,98076.94
2019-05-15T11:24:04.227Z,98066.95
2019-05-15T11:29:09.708Z,98052.02
2019-05-15T11:34:12.543Z,98052.02
2019-05-15T11:39:18.172Z,98072.24
2019-05-15T11:44:20.841Z,98063.90
2019-05-15T11:49:24.145Z,98064.47
2019-05-15T11:54:28.265Z,98061.13
2019-05-15T11:59:31.742Z,98063.19
2019-05-15T12:04:35.023Z,98061.56
2019-05-15T12:09:38.856Z,98055.45
2019-05-15T12:14:42.178Z,98053.84
2019-05-15T12:19:54.850Z,98049.79
2019-05-15T12:24:50.484Z,98043.13
2019-05-15T12:29:53.765Z,98045.52
2019-05-15T12:35:00.011Z,98032.83
2019-05-15T13:00:24.829Z,98044.27
2019-05-15T13:05:29.086Z,98044.39
2019-05-15T13:10:33.139Z,98041.17
2019-05-15T13:15:40.435Z,98044.31
2019-05-15T13:20:41.437Z,98036.62
2019-05-15T13:25:44.733Z,98026.23
2019-05-15T13:30:48.946Z,98028.78
2019-05-15T13:35:52.501Z,98024.14
2019-05-15T13:40:55.795Z,98021.91
2019-05-15T13:45:59.664Z,98027.92
2019-05-15T13:51:02.962Z,98031.06
2019-05-15T13:56:06.317Z,98038.52
2019-05-15T14:01:09.629Z,98036.34
2019-05-15T14:06:12.896Z,98031.65
2019-05-15T14:11:21.192Z,98034.91
2019-05-15T14:16:21.201Z,98030.05
2019-05-15T14:21:24.483Z,98021.50
2019-05-15T14:26:27.792Z,98024.12
2019-05-15T14:31:31.085Z,98029.12
2019-05-15T14:36:34.385Z,98030.96
2019-05-15T14:41:38.235Z,98022.42
2019-05-15T14:46:41.655Z,98012.78
2019-05-15T14:51:44.950Z,98014.62
2019-05-15T14:56:48.726Z,98013.89
2019-05-15T15:01:52.022Z,98016.89
2019-05-15T15:06:57.624Z,98011.17
2019-05-15T15:12:00.502Z,98012.84
2019-05-15T15:17:03.798Z,98004.27
2019-05-15T15:22:08.739Z,98002.56
2019-05-15T15:27:12.178Z,98007.70
2019-05-15T15:32:15.471Z,98001.58
2019-05-15T15:37:18.760Z,98007.17
2019-05-15T15:42:22.041Z,98010.57
2019-05-15T15:47:25.344Z,98013.81
2019-05-15T15:52:29.090Z,98013.03
2019-05-15T15:57:32.495Z,98011.32
2019-05-15T16:02:35.860Z,98018.08
2019-05-15T16:07:39.261Z,98011.53
2019-05-15T16:12:42.583Z,98011.34
2019-05-15T16:17:45.877Z,98004.23
2019-05-15T16:22:49.946Z,98007.90
2019-05-15T16:27:53.502Z,97999.70
2019-05-15T16:32:58.479Z,97998.48
2019-05-15T16:38:01.956Z,98003.80
2019-05-15T16:43:05.245Z,98003.64
2019-05-15T16:48:09.423Z,98011.06
2019-05-15T16:53:12.873Z,98005.02
2019-05-15T16:58:19.103Z,98006.69
2019-05-15T17:03:22.221Z,98003.06
2019-05-15T17:08:25.506Z,98002.33
2019-05-15T17:13:29.040Z,98001.38
2019-05-15T17:18:32.331Z,98004.45
2019-05-15T17:23:35.625Z,98007.25
2019-05-15T17:28:38.921Z,98001.30
2019-05-15T17:33:42.247Z,98003.30
2019-05-15T17:38:45.604Z,98005.80
2019-05-15T17:43:48.895Z,98007.23
2019-05-15T17:48:55.697Z,98007.41
2019-05-15T17:53:58.290Z,98001.59
2019-05-15T17:59:01.546Z,98000.02
2019-05-15T18:04:04.852Z,97994.67
2019-05-15T18:09:08.679Z,97994.30
2019-05-15T18:14:12.118Z,97996.71
2019-05-15T18:19:15.595Z,97990.05
2019-05-15T18:24:18.884Z,97991.02
2019-05-15T18:29:22.187Z,97990.22
2019-05-15T18:34:25.463Z,97982.09
2019-05-15T18:39:28.756Z,97976.27
2019-05-15T18:44:33.021Z,97982.98
2019-05-15T18:49:38.037Z,97982.70
2019-05-15T18:54:41.313Z,97984.13
2019-05-15T18:59:44.773Z,97981.19
2019-05-15T19:04:49.025Z,97983.09
2019-05-15T19:09:52.489Z,97982.00
2019-05-15T19:14:58.451Z,97987.95
2019-05-15T19:20:00.787Z,97987.62
2019-05-15T19:25:05.825Z,97986.95
2019-05-15T19:30:10.162Z,97988.75
2019-05-15T19:35:13.720Z,97990.14
2019-05-15T19:40:18.752Z,97996.14
2019-05-15T19:45:22.143Z,97995.75
2019-05-15T19:50:25.428Z,97991.56
2019-05-15T19:55:28.818Z,97991.65
2019-05-15T20:00:32.103Z,97992.78
2019-05-15T20:05:38.102Z,97986.78
2019-05-15T20:10:41.314Z,97991.36
2019-05-15T20:15:44.605Z,97986.23
2019-05-15T20:20:48.049Z,97984.69
2019-05-15T20:25:51.334Z,97983.43
2019-05-15T20:30:54.617Z,97976.50
2019-05-15T20:35:59.065Z,97972.70
2019-05-15T20:41:02.309Z,97963.26
2019-05-15T20:46:05.585Z,97965.19
2019-05-15T20:51:08.879Z,97962.80
2019-05-15T20:56:12.177Z,97964.84
2019-05-15T21:01:18.072Z,97960.87
2019-05-15T21:06:20.752Z,97951.73
2019-05-15T21:11:24.055Z,97957.30
2019-05-15T21:16:27.938Z,97952.55
2019-05-15T21:21:31.319Z,97948.52
2019-05-15T21:26:34.613Z,97944.08
2019-05-15T21:31:39.921Z,97941.19
2019-05-15T21:36:43.107Z,97935.62
2019-05-15T21:41:48.722Z,97928.91
2019-05-15T21:46:51.431Z,97922.53
2019-05-15T21:51:54.737Z,97922.28
2019-05-15T21:57:12.887Z,97930.27
2019-05-15T22:02:03.187Z,97927.83
2019-05-15T22:07:09.048Z,97926.53
2019-05-15T22:12:11.911Z,97919.40
2019-05-15T22:17:15.193Z,97920.85
2019-05-15T22:22:18.476Z,97911.80
2019-05-15T22:27:21.770Z,97906.27
2019-05-15T22:32:25.064Z,97895.50
2019-05-15T22:37:29.456Z,97893.41
2019-05-15T22:42:32.754Z,97884.36
2019-05-15T22:47:36.871Z,97876.03
2019-05-15T22:52:41.076Z,97867.78
2019-05-15T22:57:44.528Z,97864.39
2019-05-15T23:02:48.900Z,97861.00
2019-05-15T23:07:52.283Z,97858.70
2019-05-15T23:12:57.687Z,97852.07
2019-05-15T23:18:00.599Z,97844.70
2019-05-15T23:23:03.969Z,97834.86
2019-05-15T23:28:08.583Z,97824.86
2019-05-15T23:33:11.868Z,97823.33
2019-05-15T23:38:15.153Z,97812.61
2019-05-15T23:43:19.053Z,97814.97
2019-05-15T23:48:22.386Z,97801.31
2019-05-15T23:53:25.743Z,97796.13
2019-05-15T23:58:29.444Z,97791.27
